Phoenix, AZ

2:15 PM MST on July 29, 2016 (GMT -0700)
Willo Historic District | | Change Station
Active Advisory: Blowing Dust Advisory

Elev 1086 ft 33.47 °N, 112.08 °W | Updated 1 minute ago

Scattered Clouds
Scattered Clouds
108.5 °F
Feels Like 109 °F
N
2.7
Wind Variable Wind from SW
Gusts 4.9 mph

Today
High -- | Low -- °F
--% Chance of Precip.
Yesterday
High -- | Low -- °F
Precip. -- in
Pressure 29.67 in
Visibility 10.0 miles
Clouds Few 9500 ft
Few 16000 ft
Scattered Clouds 25000 ft
Heat Index 109 °F
Dew Point 57 °F
Humidity 19%
Rainfall 0.00 in
Snow Depth Not available.
5:39 AM 7:29 PM
Waning Crescent, 19% visible
METAR KPHX 292051Z 25011G15KT 10SM FEW095 FEW160 SCT250 42/16 A2974 RMK AO2 SLP045 T04220161 58028
Pressure 29.67 in
Visibility 10.0 miles
Clouds Few 9500 ft
Few 16000 ft
Scattered Clouds 25000 ft
Heat Index 109 °F
Dew Point 57 °F
Humidity 19%
Rainfall 0.00 in
Snow Depth Not available.
5:39 AM 7:29 PM
Waning Crescent, 19% visible
METAR KPHX 292051Z 25011G15KT 10SM FEW095 FEW160 SCT250 42/16 A2974 RMK AO2 SLP045 T04220161 58028

10-Day Weather Forecast

Almanac

Astronomy

Jul. 29, 2016 Rise Set
Actual Time
Civil Twilight
Nautical Twilight
Astronomical Twilight
Moon
Length of Visible Light
Length of Day
Tomorrow will be .
, % of the Moon is Illuminated

Today's Extremes

State Highs State Lows

Community

WunderPhotos

Upload Photos

1,928,421 photos uploaded!

WunderBlog® & News

Nearby

Air Quality

  Air Quality AQ Index Pollutant
Not available.

Snow Depth

Station Depth Elevation

Earthquake Activity

City Distance Mag. Time & Date
Minimum magnitude displayed is 2.5.

Coastal Water Temperatures

Place Temperature

Stations

Nearby Weather Stations

Station Location Temp. Windchill Dew Point Humidity Wind Precip. Elev Updated Type
                   

Watches & Warnings

Blowing Dust Advisory
Issued: 9:38 AM MDT Jul. 29, 2016 – National Weather Service

... Blowing dust advisory in effect from 5 PM this afternoon to
8 PM MST this evening...

The National Weather Service in Phoenix has issued a blowing dust
advisory... which is in effect from 5 PM this afternoon to 8 PM
MST this evening.

* Affected area... much of south-central Arizona including the
Interstate 10 and Interstate 8 corridors from Phoenix to Casa
Grande and Gila Bend.

* Timing... late this afternoon through Pinal County spreading north
and west through Phoenix during the early evening.

* Winds... gusts over 40 mph likely.

* Visibility... below 1 mile will be common.

* Impacts... hazardous driving conditions from widespread blowing dust
reducing visibility below 1 mile. Local dense blowing dust is also
possible.

Precautionary/preparedness actions...

Be ready for a sudden drop in visibility. If you encounter
blowing dust or blowing sand on the roadway or see it
approaching... pull off the Road as far as possible and put your
vehicle in Park. Turn the lights all the way off and keep your
foot off the brake pedal.

Remember... pull aside... stay alive.